Gentle Leader — C6WY9 — position and weather

sailwx.info

Track history (hours):
 
Tides and Currents Weather Stations Pressure Air Temp Water Temp Dewpoint Dewpoint Depression Visibility Wind Speed Wind Dir Waves Ship Positions

Gentle Leader

Last reported at 2017-Jun-22 22:29 UTC. Time now 2017-Jun-27 02:04 UTC.
Position N 39°23' W 072°33'.

Length 200 m; draft 8.1 m.

Type: Cargo ship. MMSI: 311003300.

Date/timePositionNaut miles runAvg speedWind from/ knotsBaromVisibWave heightAir tempDewpointWater temp
2017-Jun-22 22:29N 39°23' W 072°33'918.0
2017-Jun-22 21:58N 39°30' W 072°41'817.7
2017-Jun-22 21:30N 39°37' W 072°48'917.7
2017-Jun-22 20:59N 39°43' W 072°57'817.5
2017-Jun-22 20:30N 39°49' W 073°05'917.4
2017-Jun-22 20:00N 39°55' W 073°13'917.4
2017-Jun-22 19:29N 40°01' W 073°21'917.4
2017-Jun-22 18:58N 40°08' W 073°29'817.2
2017-Jun-22 18:30N 40°14' W 073°35'917.1
2017-Jun-22 17:59N 40°21' W 073°43'714.3
2017-Jun-22 17:29N 40°27' W 073°48'612.1
2017-Jun-22 17:00N 40°29' W 073°55'713.7
2017-Jun-22 16:30N 40°34' W 074°02'612.0
2017-Jun-22 16:00N 40°40' W 074°04'1 2.4
2017-Jun-22 15:30N 40°40' W 074°05'0 0.0
2017-Jun-22 15:00N 40°40' W 074°05'0 0.0
2017-Jun-22 14:00N 40°40' W 074°05'0 0.0
2017-Jun-22 13:30N 40°40' W 074°05'0 0.0
2017-Jun-22 13:00N 40°40' W 074°05'0 0.0
2017-Jun-22 12:30N 40°40' W 074°05'0 0.0
2017-Jun-22 12:00N 40°40' W 074°05'0 0.0
2017-Jun-22 11:30N 40°40' W 074°05'0 0.0
2017-Jun-22 11:00N 40°40' W 074°05'0 0.0
2017-Jun-22 10:30N 40°40' W 074°05'0 0.0
2017-Jun-22 10:00N 40°40' W 074°05'0 0.0
2017-Jun-22 09:30N 40°40' W 074°05'0 0.0
2017-Jun-22 09:00N 40°40' W 074°05'0 0.0
2017-Jun-22 08:30N 40°40' W 074°05'0 0.0
2017-Jun-22 08:00N 40°40' W 074°05'0 0.0
2017-Jun-22 07:30N 40°40' W 074°05'0 0.0
2017-Jun-22 07:00N 40°40' W 074°05'0 0.0
2017-Jun-22 06:30N 40°40' W 074°05'0 0.0
2017-Jun-22 06:00N 40°40' W 074°05'0 0.0
2017-Jun-22 05:30N 40°40' W 074°05'0 0.0
2017-Jun-22 05:00N 40°40' W 074°05'0 0.0
2017-Jun-22 04:30N 40°40' W 074°05'0 0.0
2017-Jun-22 04:00N 40°40' W 074°05'0 0.0
2017-Jun-22 03:30N 40°40' W 074°05'0 0.0
2017-Jun-22 03:00N 40°40' W 074°05'0 0.0
2017-Jun-22 02:30N 40°40' W 074°05'0 0.0
2017-Jun-22 02:00N 40°40' W 074°05'0 0.0
2017-Jun-22 01:30N 40°40' W 074°05'0 0.0
2017-Jun-22 01:00N 40°40' W 074°05'0 0.0
2017-Jun-22 00:30N 40°40' W 074°05'0 0.0
2017-Jun-22 00:00N 40°40' W 074°05'0 0.0
2017-Jun-21 23:30N 40°40' W 074°05'0 0.0
2017-Jun-21 23:00N 40°40' W 074°05'0 0.0
2017-Jun-21 22:30N 40°40' W 074°05'0 0.1
2017-Jun-21 22:00N 40°40' W 074°05'1 2.2
2017-Jun-21 21:31N 40°40' W 074°04'3 6.8
2017-Jun-21 21:00N 40°39' W 074°08'3 4.9
2017-Jun-21 20:30N 40°41' W 074°08'1 1.6
2017-Jun-21 19:59N 40°42' W 074°08'0 0.0
2017-Jun-21 19:29N 40°42' W 074°08'0 0.0
2017-Jun-21 18:59N 40°42' W 074°08'0 0.0
2017-Jun-21 18:29N 40°42' W 074°08'0 0.0
2017-Jun-21 17:59N 40°42' W 074°08'0 0.0
2017-Jun-21 17:29N 40°42' W 074°08'0 0.0
2017-Jun-21 16:59N 40°42' W 074°08'0 0.0
2017-Jun-21 16:29N 40°42' W 074°08'0 0.0
2017-Jun-21 15:59N 40°42' W 074°08'0 0.0
2017-Jun-21 15:29N 40°42' W 074°08'0 0.0
2017-Jun-21 14:59N 40°42' W 074°08'0 0.0
2017-Jun-21 14:29N 40°42' W 074°08'0 0.0
2017-Jun-21 13:29N 40°42' W 074°08'0 0.0
2017-Jun-21 12:59N 40°42' W 074°08'0 0.0
2017-Jun-21 12:29N 40°42' W 074°08'0 0.0
2017-Jun-21 11:59N 40°42' W 074°08'0 0.0
2017-Jun-21 11:29N 40°42' W 074°08'0 0.0
2017-Jun-21 10:59N 40°42' W 074°08'0 0.0
2017-Jun-21 10:29N 40°42' W 074°08'0 0.2
2017-Jun-21 10:01N 40°42' W 074°08'3 5.5
2017-Jun-21 09:30N 40°39' W 074°09'3 6.0
2017-Jun-21 09:00N 40°39' W 074°05'4 7.6
2017-Jun-21 08:31N 40°36' W 074°02'5 9.1
2017-Jun-21 08:01N 40°32' W 074°00'612.2
2017-Jun-21 07:30N 40°29' W 073°53'510.4
2017-Jun-21 06:59N 40°27' W 073°47'34 9.6
2017-Jun-21 03:26N 40°30' W 073°02'4 9.9
2017-Jun-21 03:00N 40°30' W 072°56'510.0
2017-Jun-21 02:30N 40°30' W 072°49'510.0
2017-Jun-21 02:00N 40°30' W 072°43'510.1
2017-Jun-21 01:30N 40°31' W 072°36'510.1
2017-Jun-21 01:00N 40°31' W 072°30'510.1
2017-Jun-21 00:30N 40°31' W 072°23'510.1
2017-Jun-21 00:00N 40°31' W 072°16'146 5.7
2017-Jun-19 22:20N 42°17' W 070°02'410.0
2017-Jun-19 21:57N 42°17' W 070°07'4 9.9
2017-Jun-19 21:30N 42°18' W 070°13'5 9.7
2017-Jun-19 21:00N 42°18' W 070°19'5 9.7
2017-Jun-19 20:30N 42°19' W 070°26'5 9.9
2017-Jun-19 20:00N 42°19' W 070°33'5 9.5
2017-Jun-19 19:30N 42°20' W 070°39'4 8.8
2017-Jun-19 19:00N 42°22' W 070°44'4 8.5
2017-Jun-19 18:30N 42°23' W 070°49'510.2
2017-Jun-19 18:00N 42°21' W 070°56'5 9.0
2017-Jun-19 17:30N 42°21' W 071°02'2 3.6
2017-Jun-19 16:56N 42°23' W 071°03'0 0.0
2017-Jun-19 16:29N 42°23' W 071°03'0 0.0
2017-Jun-19 15:59N 42°23' W 071°03'0 0.0
2017-Jun-19 15:26N 42°23' W 071°03'0 0.0
2017-Jun-19 14:56N 42°23' W 071°03'0 0.0
2017-Jun-19 13:56N 42°23' W 071°03'0 0.0
2017-Jun-19 13:26N 42°23' W 071°03'0 0.0
2017-Jun-19 12:50N 42°23' W 071°03'0 0.0
2017-Jun-19 12:14N 42°23' W 071°03'0 0.0
2017-Jun-19 11:56N 42°23' W 071°03'0 0.0
2017-Jun-19 11:26N 42°23' W 071°03'0 0.0
2017-Jun-19 10:56N 42°23' W 071°03'0 0.0
2017-Jun-19 10:29N 42°23' W 071°03'0 0.0
2017-Jun-19 09:56N 42°23' W 071°03'0 0.8
2017-Jun-19 09:30N 42°23' W 071°03'2 4.3
2017-Jun-19 09:00N 42°21' W 071°02'5 9.4
2017-Jun-19 08:31N 42°22' W 070°55'510.1
2017-Jun-19 08:01N 42°24' W 070°49'4 7.9
2017-Jun-19 07:31N 42°22' W 070°44'510.8
2017-Jun-19 07:01N 42°17' W 070°40'510.5
2017-Jun-19 06:30N 42°13' W 070°35'2510.5
2017-Jun-19 04:09N 41°55' W 070°13'0 1.7
2017-Jun-19 04:00N 41°55' W 070°13'1 1.8
2017-Jun-19 03:30N 41°55' W 070°14'1 1.7
2017-Jun-19 03:01N 41°55' W 070°15'1 1.5
2017-Jun-19 02:30N 41°54' W 070°16'1 1.6
2017-Jun-19 02:01N 41°54' W 070°17'3 1.2
2017-Jun-18 23:17N 41°53' W 070°21'49 9.1
2017-Jun-18 17:54N 41°34' W 071°22'3 6.6
2017-Jun-18 17:30N 41°37' W 071°24'0 0.0
2017-Jun-18 10:35N 41°37' W 071°24'0 3.3
2017-Jun-18 10:30N 41°36' W 071°24'170 9.0
2017-Jun-17 15:40N 39°20' W 073°36'13 9.7
2017-Jun-17 14:20N 39°11' W 073°48'17 9.9
2017-Jun-17 12:35N 38°59' W 074°04'2 9.9
2017-Jun-17 12:25N 38°58' W 074°06'4 9.9
2017-Jun-17 12:00N 38°55' W 074°10'7 9.9
2017-Jun-17 11:16N 38°50' W 074°17'3 9.9
2017-Jun-17 11:00N 38°49' W 074°20'5 9.8
2017-Jun-17 10:30N 38°47' W 074°26'5 9.8
2017-Jun-17 09:59N 38°45' W 074°32'6 9.9
2017-Jun-17 09:25N 38°45' W 074°39'4 9.8
2017-Jun-17 09:00N 38°45' W 074°44'510.1
2017-Jun-17 08:30N 38°45' W 074°50'510.1
2017-Jun-17 08:00N 38°46' W 074°57'8 9.0
2017-Jun-17 07:07N 38°51' W 075°05'1 9.2
2017-Jun-17 07:00N 38°52' W 075°05'713.7
2017-Jun-17 06:28N 38°59' W 075°08'614.2
2017-Jun-17 06:00N 39°05' W 075°11'714.1
2017-Jun-17 05:30N 39°10' W 075°16'714.2
2017-Jun-17 05:01N 39°16' W 075°21'715.0
2017-Jun-17 04:31N 39°22' W 075°27'815.5
2017-Jun-17 04:00N 39°28' W 075°34'611.1
2017-Jun-17 03:30N 39°33' W 075°35'510.3
2017-Jun-17 03:00N 39°33' W 075°42'510.0
2017-Jun-17 02:30N 39°32' W 075°48'4 7.1
2017-Jun-17 02:00N 39°31' W 075°53'5 9.5
2017-Jun-17 01:30N 39°29' W 075°57'612.6
2017-Jun-17 01:00N 39°24' W 076°03'713.9
2017-Jun-17 00:31N 39°21' W 076°11'612.2
2017-Jun-17 00:00N 39°15' W 076°14'611.6
2017-Jun-16 23:31N 39°10' W 076°18'611.9
2017-Jun-16 23:01N 39°11' W 076°26'510.7
2017-Jun-16 22:31N 39°13' W 076°32'2 3.5
2017-Jun-16 21:54N 39°15' W 076°32'0 0.0
2017-Jun-16 21:30N 39°15' W 076°32'0 0.0
2017-Jun-16 20:57N 39°15' W 076°32'0 0.0
2017-Jun-16 20:30N 39°15' W 076°32'0 0.0
2017-Jun-16 20:00N 39°15' W 076°32'0 0.0
2017-Jun-16 19:30N 39°15' W 076°32'0 0.0
2017-Jun-16 19:00N 39°15' W 076°32'0 0.0
2017-Jun-16 18:27N 39°15' W 076°32'0 0.0
2017-Jun-16 18:00N 39°15' W 076°32'0 0.0
2017-Jun-16 17:30N 39°15' W 076°32'0 0.0
2017-Jun-16 17:00N 39°15' W 076°32'0 0.0
2017-Jun-16 16:30N 39°15' W 076°32'0 0.0
2017-Jun-16 16:00N 39°15' W 076°32'0 0.0
2017-Jun-16 15:27N 39°15' W 076°32'0 0.0
2017-Jun-16 15:00N 39°15' W 076°32'0 0.0
2017-Jun-16 14:00N 39°15' W 076°32'0 0.0
2017-Jun-16 13:30N 39°15' W 076°32'0 0.0
2017-Jun-16 13:00N 39°15' W 076°32'0 0.0
2017-Jun-16 12:30N 39°15' W 076°32'0 0.0
2017-Jun-16 12:00N 39°15' W 076°32'0 0.0
2017-Jun-16 11:30N 39°15' W 076°32'0 0.0
2017-Jun-16 11:00N 39°15' W 076°32'0 0.0
2017-Jun-16 10:30N 39°15' W 076°32'0 0.0
2017-Jun-16 09:57N 39°15' W 076°32'0 0.0
2017-Jun-16 09:30N 39°15' W 076°32'0 0.0
2017-Jun-16 09:00N 39°15' W 076°32'0 0.0
2017-Jun-16 08:30N 39°15' W 076°32'0 0.0
2017-Jun-16 08:00N 39°15' W 076°32'0 0.0
2017-Jun-16 07:30N 39°15' W 076°32'0 0.0
2017-Jun-16 07:00N 39°15' W 076°32'0 0.0
2017-Jun-16 06:30N 39°15' W 076°32'0 0.0
2017-Jun-16 06:00N 39°15' W 076°32'0 0.0
2017-Jun-16 05:30N 39°15' W 076°32'0 0.0
2017-Jun-16 05:00N 39°15' W 076°32'0 0.0
2017-Jun-16 04:30N 39°15' W 076°32'0 0.0
2017-Jun-16 04:00N 39°15' W 076°32'0 0.0
2017-Jun-16 03:30N 39°15' W 076°32'0 0.0
2017-Jun-16 03:00N 39°15' W 076°32'0 0.0
2017-Jun-16 02:27N 39°15' W 076°32'0 0.0
2017-Jun-16 02:00N 39°15' W 076°32'0 0.0
2017-Jun-16 01:30N 39°15' W 076°32'0 0.0
2017-Jun-16 01:00N 39°15' W 076°32'0 0.0
2017-Jun-16 00:30N 39°15' W 076°32'0 0.0
2017-Jun-16 00:00N 39°15' W 076°32'0 0.0
2017-Jun-15 23:30N 39°15' W 076°32'0 0.0
2017-Jun-15 23:00N 39°15' W 076°32'0 0.0
2017-Jun-15 22:30N 39°15' W 076°32'0 0.0
2017-Jun-15 22:00N 39°15' W 076°32'0 0.0
2017-Jun-15 21:30N 39°15' W 076°32'0 0.0
2017-Jun-15 21:00N 39°15' W 076°32'0 0.0
2017-Jun-15 20:30N 39°15' W 076°32'0 0.0
2017-Jun-15 20:00N 39°15' W 076°32'0 0.0
2017-Jun-15 19:30N 39°15' W 076°32'0 0.0
2017-Jun-15 19:00N 39°15' W 076°32'0 0.0
2017-Jun-15 18:30N 39°15' W 076°32'0 0.0
2017-Jun-15 18:00N 39°15' W 076°32'0 0.0
2017-Jun-15 17:30N 39°15' W 076°32'0 0.0
2017-Jun-15 17:00N 39°15' W 076°32'0 0.0
2017-Jun-15 16:27N 39°15' W 076°32'0 0.0
2017-Jun-15 16:00N 39°15' W 076°32'0 0.0
2017-Jun-15 15:27N 39°15' W 076°32'0 0.0
2017-Jun-15 15:00N 39°15' W 076°32'0 0.0
2017-Jun-15 14:00N 39°15' W 076°32'0 0.0
2017-Jun-15 13:30N 39°15' W 076°32'0 0.0
2017-Jun-15 12:57N 39°15' W 076°32'0 0.0
2017-Jun-15 12:30N 39°15' W 076°32'0 0.0
2017-Jun-15 12:00N 39°15' W 076°32'0 0.0
2017-Jun-15 11:30N 39°15' W 076°32'0 0.0
2017-Jun-15 11:00N 39°15' W 076°32'0 0.0
2017-Jun-15 10:30N 39°15' W 076°32'0 0.0
2017-Jun-15 10:00N 39°15' W 076°32'0 0.0
2017-Jun-15 09:30N 39°15' W 076°32'0 0.0
2017-Jun-15 09:00N 39°15' W 076°32'0 0.0
2017-Jun-15 08:30N 39°15' W 076°32'0 0.0
2017-Jun-15 08:00N 39°15' W 076°32'0 0.0
2017-Jun-15 07:30N 39°15' W 076°32'0 0.0
2017-Jun-15 07:00N 39°15' W 076°32'0 0.0
2017-Jun-15 06:30N 39°15' W 076°32'0 0.0
2017-Jun-15 06:00N 39°15' W 076°32'0 0.0
2017-Jun-15 05:30N 39°15' W 076°32'0 0.0
2017-Jun-15 05:00N 39°15' W 076°32'0 0.0
2017-Jun-15 04:27N 39°15' W 076°32'0 0.0
2017-Jun-15 04:00N 39°15' W 076°32'0 0.0
2017-Jun-15 03:30N 39°15' W 076°32'0 0.0
2017-Jun-15 03:00N 39°15' W 076°32'0 0.0
2017-Jun-15 02:30N 39°15' W 076°32'0 0.0
2017-Jun-15 02:00N 39°15' W 076°32'0 0.0
2017-Jun-15 01:30N 39°15' W 076°32'0 0.0
2017-Jun-15 01:00N 39°15' W 076°32'0 0.0
2017-Jun-15 00:30N 39°15' W 076°32'0 0.0
2017-Jun-14 23:57N 39°15' W 076°32'1 2.6
2017-Jun-14 23:30N 39°14' W 076°33'4 9.2
2017-Jun-14 23:01N 39°11' W 076°28'713.3
2017-Jun-14 22:30N 39°06' W 076°24'714.1
2017-Jun-14 22:01N 38°59' W 076°23'815.8
2017-Jun-14 21:30N 38°51' W 076°24'3815.8
2017-Jun-14 19:08N 38°14' W 076°15'316.1
2017-Jun-14 18:57N 38°11' W 076°14'816.4
2017-Jun-14 18:28N 38°03' W 076°13'5515.6
2017-Jun-14 14:58N 37°08' W 076°09'1515.3
2017-Jun-14 14:00N 36°57' W 075°58'510.0
2017-Jun-14 13:30N 36°54' W 075°53'6910.1
2017-Jun-14 06:41N 35°58' W 075°03'211.5
2017-Jun-14 06:30N 35°56' W 075°03'1211.6
2017-Jun-14 05:27N 35°44' W 075°03'2312.0
2017-Jun-14 03:33N 35°21' W 075°02'012.6
2017-Jun-14 03:30N 35°20' W 075°02'612.5
2017-Jun-14 03:00N 35°14' W 075°02'1412.5
2017-Jun-14 01:53N 34°60' W 075°01'612.0
2017-Jun-14 01:22N 34°54' W 075°04'613.4
2017-Jun-14 00:52N 34°50' W 075°10'613.2
2017-Jun-14 00:25N 34°46' W 075°15'512.9
2017-Jun-14 00:00N 34°42' W 075°19'912.9
2017-Jun-13 23:20N 34°35' W 075°26'3113.4
2017-Jun-13 21:02N 34°11' W 075°50'213.8
2017-Jun-13 20:52N 34°10' W 075°52'614.2
2017-Jun-13 20:26N 34°05' W 075°57'714.4
2017-Jun-13 19:57N 33°60' W 076°02'814.4
2017-Jun-13 19:23N 33°54' W 076°09'614.2
2017-Jun-13 19:00N 33°50' W 076°14'1513.5
2017-Jun-13 17:54N 33°40' W 076°27'712.8
2017-Jun-13 17:21N 33°35' W 076°33'20814.3
2017-Jun-13 02:48N 31°08' W 079°28'714.3
2017-Jun-13 02:19N 31°08' W 079°36'  
Track history (hours):
 
Tides and Currents Weather Stations Pressure Air Temp Water Temp Dewpoint Dewpoint Depression Visibility Wind Speed Wind Dir Waves Ship Positions

Gentle Leader

Last reported at 2017-Jun-22 22:29 UTC. Time now 2017-Jun-27 02:04 UTC.
Position N 39°23' W 072°33'.

Length 200 m; draft 8.1 m.

Type: Cargo ship. MMSI: 311003300.

Date/timePositionNaut miles runAvg speedWind from/ knotsBaromVisibWave heightAir tempDewpointWater temp
2017-Jun-22 22:29N 39°23' W 072°33'918.0
2017-Jun-22 21:58N 39°30' W 072°41'817.7
2017-Jun-22 21:30N 39°37' W 072°48'917.7
2017-Jun-22 20:59N 39°43' W 072°57'817.5
2017-Jun-22 20:30N 39°49' W 073°05'917.4
2017-Jun-22 20:00N 39°55' W 073°13'917.4
2017-Jun-22 19:29N 40°01' W 073°21'917.4
2017-Jun-22 18:58N 40°08' W 073°29'817.2
2017-Jun-22 18:30N 40°14' W 073°35'917.1
2017-Jun-22 17:59N 40°21' W 073°43'714.3
2017-Jun-22 17:29N 40°27' W 073°48'612.1
2017-Jun-22 17:00N 40°29' W 073°55'713.7
2017-Jun-22 16:30N 40°34' W 074°02'612.0
2017-Jun-22 16:00N 40°40' W 074°04'1 2.4
2017-Jun-22 15:30N 40°40' W 074°05'0 0.0
2017-Jun-22 15:00N 40°40' W 074°05'0 0.0
2017-Jun-22 14:00N 40°40' W 074°05'0 0.0
2017-Jun-22 13:30N 40°40' W 074°05'0 0.0
2017-Jun-22 13:00N 40°40' W 074°05'0 0.0
2017-Jun-22 12:30N 40°40' W 074°05'0 0.0
2017-Jun-22 12:00N 40°40' W 074°05'0 0.0
2017-Jun-22 11:30N 40°40' W 074°05'0 0.0
2017-Jun-22 11:00N 40°40' W 074°05'0 0.0
2017-Jun-22 10:30N 40°40' W 074°05'0 0.0
2017-Jun-22 10:00N 40°40' W 074°05'0 0.0
2017-Jun-22 09:30N 40°40' W 074°05'0 0.0
2017-Jun-22 09:00N 40°40' W 074°05'0 0.0
2017-Jun-22 08:30N 40°40' W 074°05'0 0.0
2017-Jun-22 08:00N 40°40' W 074°05'0 0.0
2017-Jun-22 07:30N 40°40' W 074°05'0 0.0
2017-Jun-22 07:00N 40°40' W 074°05'0 0.0
2017-Jun-22 06:30N 40°40' W 074°05'0 0.0
2017-Jun-22 06:00N 40°40' W 074°05'0 0.0
2017-Jun-22 05:30N 40°40' W 074°05'0 0.0
2017-Jun-22 05:00N 40°40' W 074°05'0 0.0
2017-Jun-22 04:30N 40°40' W 074°05'0 0.0
2017-Jun-22 04:00N 40°40' W 074°05'0 0.0
2017-Jun-22 03:30N 40°40' W 074°05'0 0.0
2017-Jun-22 03:00N 40°40' W 074°05'0 0.0
2017-Jun-22 02:30N 40°40' W 074°05'0 0.0
2017-Jun-22 02:00N 40°40' W 074°05'0 0.0
2017-Jun-22 01:30N 40°40' W 074°05'0 0.0
2017-Jun-22 01:00N 40°40' W 074°05'0 0.0
2017-Jun-22 00:30N 40°40' W 074°05'0 0.0
2017-Jun-22 00:00N 40°40' W 074°05'0 0.0
2017-Jun-21 23:30N 40°40' W 074°05'0 0.0
2017-Jun-21 23:00N 40°40' W 074°05'0 0.0
2017-Jun-21 22:30N 40°40' W 074°05'0 0.1
2017-Jun-21 22:00N 40°40' W 074°05'1 2.2
2017-Jun-21 21:31N 40°40' W 074°04'3 6.8
2017-Jun-21 21:00N 40°39' W 074°08'3 4.9
2017-Jun-21 20:30N 40°41' W 074°08'1 1.6
2017-Jun-21 19:59N 40°42' W 074°08'0 0.0
2017-Jun-21 19:29N 40°42' W 074°08'0 0.0
2017-Jun-21 18:59N 40°42' W 074°08'0 0.0
2017-Jun-21 18:29N 40°42' W 074°08'0 0.0
2017-Jun-21 17:59N 40°42' W 074°08'0 0.0
2017-Jun-21 17:29N 40°42' W 074°08'0 0.0
2017-Jun-21 16:59N 40°42' W 074°08'0 0.0
2017-Jun-21 16:29N 40°42' W 074°08'0 0.0
2017-Jun-21 15:59N 40°42' W 074°08'0 0.0
2017-Jun-21 15:29N 40°42' W 074°08'0 0.0
2017-Jun-21 14:59N 40°42' W 074°08'0 0.0
2017-Jun-21 14:29N 40°42' W 074°08'0 0.0
2017-Jun-21 13:29N 40°42' W 074°08'0 0.0
2017-Jun-21 12:59N 40°42' W 074°08'0 0.0
2017-Jun-21 12:29N 40°42' W 074°08'0 0.0
2017-Jun-21 11:59N 40°42' W 074°08'0 0.0
2017-Jun-21 11:29N 40°42' W 074°08'0 0.0
2017-Jun-21 10:59N 40°42' W 074°08'0 0.0
2017-Jun-21 10:29N 40°42' W 074°08'0 0.2
2017-Jun-21 10:01N 40°42' W 074°08'3 5.5
2017-Jun-21 09:30N 40°39' W 074°09'3 6.0
2017-Jun-21 09:00N 40°39' W 074°05'4 7.6
2017-Jun-21 08:31N 40°36' W 074°02'5 9.1
2017-Jun-21 08:01N 40°32' W 074°00'612.2
2017-Jun-21 07:30N 40°29' W 073°53'510.4
2017-Jun-21 06:59N 40°27' W 073°47'34 9.6
2017-Jun-21 03:26N 40°30' W 073°02'4 9.9
2017-Jun-21 03:00N 40°30' W 072°56'510.0
2017-Jun-21 02:30N 40°30' W 072°49'510.0
2017-Jun-21 02:00N 40°30' W 072°43'510.1
2017-Jun-21 01:30N 40°31' W 072°36'510.1
2017-Jun-21 01:00N 40°31' W 072°30'510.1
2017-Jun-21 00:30N 40°31' W 072°23'510.1
2017-Jun-21 00:00N 40°31' W 072°16'146 5.7
2017-Jun-19 22:20N 42°17' W 070°02'410.0
2017-Jun-19 21:57N 42°17' W 070°07'4 9.9
2017-Jun-19 21:30N 42°18' W 070°13'5 9.7
2017-Jun-19 21:00N 42°18' W 070°19'5 9.7
2017-Jun-19 20:30N 42°19' W 070°26'5 9.9
2017-Jun-19 20:00N 42°19' W 070°33'5 9.5
2017-Jun-19 19:30N 42°20' W 070°39'4 8.8
2017-Jun-19 19:00N 42°22' W 070°44'4 8.5
2017-Jun-19 18:30N 42°23' W 070°49'510.2
2017-Jun-19 18:00N 42°21' W 070°56'5 9.0
2017-Jun-19 17:30N 42°21' W 071°02'2 3.6
2017-Jun-19 16:56N 42°23' W 071°03'0 0.0
2017-Jun-19 16:29N 42°23' W 071°03'0 0.0
2017-Jun-19 15:59N 42°23' W 071°03'0 0.0
2017-Jun-19 15:26N 42°23' W 071°03'0 0.0
2017-Jun-19 14:56N 42°23' W 071°03'0 0.0
2017-Jun-19 13:56N 42°23' W 071°03'0 0.0
2017-Jun-19 13:26N 42°23' W 071°03'0 0.0
2017-Jun-19 12:50N 42°23' W 071°03'0 0.0
2017-Jun-19 12:14N 42°23' W 071°03'0 0.0
2017-Jun-19 11:56N 42°23' W 071°03'0 0.0
2017-Jun-19 11:26N 42°23' W 071°03'0 0.0
2017-Jun-19 10:56N 42°23' W 071°03'0 0.0
2017-Jun-19 10:29N 42°23' W 071°03'0 0.0
2017-Jun-19 09:56N 42°23' W 071°03'0 0.8
2017-Jun-19 09:30N 42°23' W 071°03'2 4.3
2017-Jun-19 09:00N 42°21' W 071°02'5 9.4
2017-Jun-19 08:31N 42°22' W 070°55'510.1
2017-Jun-19 08:01N 42°24' W 070°49'4 7.9
2017-Jun-19 07:31N 42°22' W 070°44'510.8
2017-Jun-19 07:01N 42°17' W 070°40'510.5
2017-Jun-19 06:30N 42°13' W 070°35'2510.5
2017-Jun-19 04:09N 41°55' W 070°13'0 1.7
2017-Jun-19 04:00N 41°55' W 070°13'1 1.8
2017-Jun-19 03:30N 41°55' W 070°14'1 1.7
2017-Jun-19 03:01N 41°55' W 070°15'1 1.5
2017-Jun-19 02:30N 41°54' W 070°16'1 1.6
2017-Jun-19 02:01N 41°54' W 070°17'3 1.2
2017-Jun-18 23:17N 41°53' W 070°21'49 9.1
2017-Jun-18 17:54N 41°34' W 071°22'3 6.6
2017-Jun-18 17:30N 41°37' W 071°24'0 0.0
2017-Jun-18 10:35N 41°37' W 071°24'0 3.3
2017-Jun-18 10:30N 41°36' W 071°24'170 9.0
2017-Jun-17 15:40N 39°20' W 073°36'13 9.7
2017-Jun-17 14:20N 39°11' W 073°48'17 9.9
2017-Jun-17 12:35N 38°59' W 074°04'2 9.9
2017-Jun-17 12:25N 38°58' W 074°06'4 9.9
2017-Jun-17 12:00N 38°55' W 074°10'7 9.9
2017-Jun-17 11:16N 38°50' W 074°17'3 9.9
2017-Jun-17 11:00N 38°49' W 074°20'5 9.8
2017-Jun-17 10:30N 38°47' W 074°26'5 9.8
2017-Jun-17 09:59N 38°45' W 074°32'6 9.9
2017-Jun-17 09:25N 38°45' W 074°39'4 9.8
2017-Jun-17 09:00N 38°45' W 074°44'510.1
2017-Jun-17 08:30N 38°45' W 074°50'510.1
2017-Jun-17 08:00N 38°46' W 074°57'8 9.0
2017-Jun-17 07:07N 38°51' W 075°05'1 9.2
2017-Jun-17 07:00N 38°52' W 075°05'713.7
2017-Jun-17 06:28N 38°59' W 075°08'614.2
2017-Jun-17 06:00N 39°05' W 075°11'714.1
2017-Jun-17 05:30N 39°10' W 075°16'714.2
2017-Jun-17 05:01N 39°16' W 075°21'715.0
2017-Jun-17 04:31N 39°22' W 075°27'815.5
2017-Jun-17 04:00N 39°28' W 075°34'611.1
2017-Jun-17 03:30N 39°33' W 075°35'510.3
2017-Jun-17 03:00N 39°33' W 075°42'510.0
2017-Jun-17 02:30N 39°32' W 075°48'4 7.1
2017-Jun-17 02:00N 39°31' W 075°53'5 9.5
2017-Jun-17 01:30N 39°29' W 075°57'612.6
2017-Jun-17 01:00N 39°24' W 076°03'713.9
2017-Jun-17 00:31N 39°21' W 076°11'612.2
2017-Jun-17 00:00N 39°15' W 076°14'611.6
2017-Jun-16 23:31N 39°10' W 076°18'611.9
2017-Jun-16 23:01N 39°11' W 076°26'510.7
2017-Jun-16 22:31N 39°13' W 076°32'2 3.5
2017-Jun-16 21:54N 39°15' W 076°32'0 0.0
2017-Jun-16 21:30N 39°15' W 076°32'0 0.0
2017-Jun-16 20:57N 39°15' W 076°32'0 0.0
2017-Jun-16 20:30N 39°15' W 076°32'0 0.0
2017-Jun-16 20:00N 39°15' W 076°32'0 0.0
2017-Jun-16 19:30N 39°15' W 076°32'0 0.0
2017-Jun-16 19:00N 39°15' W 076°32'0 0.0
2017-Jun-16 18:27N 39°15' W 076°32'0 0.0
2017-Jun-16 18:00N 39°15' W 076°32'0 0.0
2017-Jun-16 17:30N 39°15' W 076°32'0 0.0
2017-Jun-16 17:00N 39°15' W 076°32'0 0.0
2017-Jun-16 16:30N 39°15' W 076°32'0 0.0
2017-Jun-16 16:00N 39°15' W 076°32'0 0.0
2017-Jun-16 15:27N 39°15' W 076°32'0 0.0
2017-Jun-16 15:00N 39°15' W 076°32'0 0.0
2017-Jun-16 14:00N 39°15' W 076°32'0 0.0
2017-Jun-16 13:30N 39°15' W 076°32'0 0.0
2017-Jun-16 13:00N 39°15' W 076°32'0 0.0
2017-Jun-16 12:30N 39°15' W 076°32'0 0.0
2017-Jun-16 12:00N 39°15' W 076°32'0 0.0
2017-Jun-16 11:30N 39°15' W 076°32'0 0.0
2017-Jun-16 11:00N 39°15' W 076°32'0 0.0
2017-Jun-16 10:30N 39°15' W 076°32'0 0.0
2017-Jun-16 09:57N 39°15' W 076°32'0 0.0
2017-Jun-16 09:30N 39°15' W 076°32'0 0.0
2017-Jun-16 09:00N 39°15' W 076°32'0 0.0
2017-Jun-16 08:30N 39°15' W 076°32'0 0.0
2017-Jun-16 08:00N 39°15' W 076°32'0 0.0
2017-Jun-16 07:30N 39°15' W 076°32'0 0.0
2017-Jun-16 07:00N 39°15' W 076°32'0 0.0
2017-Jun-16 06:30N 39°15' W 076°32'0 0.0
2017-Jun-16 06:00N 39°15' W 076°32'0 0.0
2017-Jun-16 05:30N 39°15' W 076°32'0 0.0
2017-Jun-16 05:00N 39°15' W 076°32'0 0.0
2017-Jun-16 04:30N 39°15' W 076°32'0 0.0
2017-Jun-16 04:00N 39°15' W 076°32'0 0.0
2017-Jun-16 03:30N 39°15' W 076°32'0 0.0
2017-Jun-16 03:00N 39°15' W 076°32'0 0.0
2017-Jun-16 02:27N 39°15' W 076°32'0 0.0
2017-Jun-16 02:00N 39°15' W 076°32'0 0.0
2017-Jun-16 01:30N 39°15' W 076°32'0 0.0
2017-Jun-16 01:00N 39°15' W 076°32'0 0.0
2017-Jun-16 00:30N 39°15' W 076°32'0 0.0
2017-Jun-16 00:00N 39°15' W 076°32'0 0.0
2017-Jun-15 23:30N 39°15' W 076°32'0 0.0
2017-Jun-15 23:00N 39°15' W 076°32'0 0.0
2017-Jun-15 22:30N 39°15' W 076°32'0 0.0
2017-Jun-15 22:00N 39°15' W 076°32'0 0.0
2017-Jun-15 21:30N 39°15' W 076°32'0 0.0
2017-Jun-15 21:00N 39°15' W 076°32'0 0.0
2017-Jun-15 20:30N 39°15' W 076°32'0 0.0
2017-Jun-15 20:00N 39°15' W 076°32'0 0.0
2017-Jun-15 19:30N 39°15' W 076°32'0 0.0
2017-Jun-15 19:00N 39°15' W 076°32'0 0.0
2017-Jun-15 18:30N 39°15' W 076°32'0 0.0
2017-Jun-15 18:00N 39°15' W 076°32'0 0.0
2017-Jun-15 17:30N 39°15' W 076°32'0 0.0
2017-Jun-15 17:00N 39°15' W 076°32'0 0.0
2017-Jun-15 16:27N 39°15' W 076°32'0 0.0
2017-Jun-15 16:00N 39°15' W 076°32'0 0.0
2017-Jun-15 15:27N 39°15' W 076°32'0 0.0
2017-Jun-15 15:00N 39°15' W 076°32'0 0.0
2017-Jun-15 14:00N 39°15' W 076°32'0 0.0
2017-Jun-15 13:30N 39°15' W 076°32'0 0.0
2017-Jun-15 12:57N 39°15' W 076°32'0 0.0
2017-Jun-15 12:30N 39°15' W 076°32'0 0.0
2017-Jun-15 12:00N 39°15' W 076°32'0 0.0
2017-Jun-15 11:30N 39°15' W 076°32'0 0.0
2017-Jun-15 11:00N 39°15' W 076°32'0 0.0
2017-Jun-15 10:30N 39°15' W 076°32'0 0.0
2017-Jun-15 10:00N 39°15' W 076°32'0 0.0
2017-Jun-15 09:30N 39°15' W 076°32'0 0.0
2017-Jun-15 09:00N 39°15' W 076°32'0 0.0
2017-Jun-15 08:30N 39°15' W 076°32'0 0.0
2017-Jun-15 08:00N 39°15' W 076°32'0 0.0
2017-Jun-15 07:30N 39°15' W 076°32'0 0.0
2017-Jun-15 07:00N 39°15' W 076°32'0 0.0
2017-Jun-15 06:30N 39°15' W 076°32'0 0.0
2017-Jun-15 06:00N 39°15' W 076°32'0 0.0
2017-Jun-15 05:30N 39°15' W 076°32'0 0.0
2017-Jun-15 05:00N 39°15' W 076°32'0 0.0
2017-Jun-15 04:27N 39°15' W 076°32'0 0.0
2017-Jun-15 04:00N 39°15' W 076°32'0 0.0
2017-Jun-15 03:30N 39°15' W 076°32'0 0.0
2017-Jun-15 03:00N 39°15' W 076°32'0 0.0
2017-Jun-15 02:30N 39°15' W 076°32'0 0.0
2017-Jun-15 02:00N 39°15' W 076°32'0 0.0
2017-Jun-15 01:30N 39°15' W 076°32'0 0.0
2017-Jun-15 01:00N 39°15' W 076°32'0 0.0
2017-Jun-15 00:30N 39°15' W 076°32'0 0.0
2017-Jun-14 23:57N 39°15' W 076°32'1 2.6
2017-Jun-14 23:30N 39°14' W 076°33'4 9.2
2017-Jun-14 23:01N 39°11' W 076°28'713.3
2017-Jun-14 22:30N 39°06' W 076°24'714.1
2017-Jun-14 22:01N 38°59' W 076°23'815.8
2017-Jun-14 21:30N 38°51' W 076°24'3815.8
2017-Jun-14 19:08N 38°14' W 076°15'316.1
2017-Jun-14 18:57N 38°11' W 076°14'816.4
2017-Jun-14 18:28N 38°03' W 076°13'5515.6
2017-Jun-14 14:58N 37°08' W 076°09'1515.3
2017-Jun-14 14:00N 36°57' W 075°58'510.0
2017-Jun-14 13:30N 36°54' W 075°53'6910.1
2017-Jun-14 06:41N 35°58' W 075°03'211.5
2017-Jun-14 06:30N 35°56' W 075°03'1211.6
2017-Jun-14 05:27N 35°44' W 075°03'2312.0
2017-Jun-14 03:33N 35°21' W 075°02'012.6
2017-Jun-14 03:30N 35°20' W 075°02'612.5
2017-Jun-14 03:00N 35°14' W 075°02'1412.5
2017-Jun-14 01:53N 34°60' W 075°01'612.0
2017-Jun-14 01:22N 34°54' W 075°04'613.4
2017-Jun-14 00:52N 34°50' W 075°10'613.2
2017-Jun-14 00:25N 34°46' W 075°15'512.9
2017-Jun-14 00:00N 34°42' W 075°19'912.9
2017-Jun-13 23:20N 34°35' W 075°26'3113.4
2017-Jun-13 21:02N 34°11' W 075°50'213.8
2017-Jun-13 20:52N 34°10' W 075°52'614.2
2017-Jun-13 20:26N 34°05' W 075°57'714.4
2017-Jun-13 19:57N 33°60' W 076°02'814.4
2017-Jun-13 19:23N 33°54' W 076°09'614.2
2017-Jun-13 19:00N 33°50' W 076°14'1513.5
2017-Jun-13 17:54N 33°40' W 076°27'712.8
2017-Jun-13 17:21N 33°35' W 076°33'20814.3
2017-Jun-13 02:48N 31°08' W 079°28'714.3
2017-Jun-13 02:19N 31°08' W 079°36'  

Dump ship's entire track history